Time;durP1;ratioP1;P1;durP2;ratioP2;P2;SDS_P1;SDS_P2;PMS_P1;PMS_P2;Temp;Humidity;BMP_temperature;BMP_pressure;BME280_temperature;BME280_humidity;BME280_pressure;Samples;Min_cycle;Max_cycle;Signal;HPM_P1;HPM_P2
2022/04/10 00:00:12;;;;;;;16.37;3.20;;;;;;;2.76;65.85;100044.91;1705752;82;21091;-82
2022/04/10 00:02:41;;;;;;;14.55;3.83;;;;;;;2.75;65.99;100040.13;1705781;82;21083;-81
2022/04/10 00:05:09;;;;;;;11.70;3.52;;;;;;;2.76;66.01;100043.61;1705682;82;21880;-80
2022/04/10 00:07:36;;;;;;;13.58;3.55;;;;;;;2.75;66.02;100047.05;1679917;84;21142;-80
2022/04/10 00:10:03;;;;;;;12.47;3.22;;;;;;;2.76;66.10;100052.31;1705857;82;21607;-80
2022/04/10 00:12:35;;;;;;;11.97;3.20;;;;;;;2.76;66.12;100041.92;1705618;82;21075;-81
2022/04/10 00:15:03;;;;;;;14.03;3.10;;;;;;;2.76;66.13;100051.41;1704576;82;21564;-81
2022/04/10 00:17:29;;;;;;;7.83;3.12;;;;;;;2.78;66.21;100054.95;1707164;82;21766;-80
2022/04/10 00:19:56;;;;;;;9.30;3.08;;;;;;;2.78;66.17;100059.77;1705604;82;21581;-80
2022/04/10 00:22:23;;;;;;;16.90;3.75;;;;;;;2.79;66.20;100061.95;1705877;82;21613;-81
2022/04/10 00:24:50;;;;;;;12.50;3.25;;;;;;;2.79;66.22;100060.23;1705719;82;21589;-81
2022/04/10 00:27:16;;;;;;;12.23;3.75;;;;;;;2.81;66.27;100067.69;1705584;82;21095;-81
2022/04/10 00:29:43;;;;;;;8.00;2.95;;;;;;;2.81;66.28;100055.98;1705839;82;21835;-80
2022/04/10 00:32:10;;;;;;;13.90;3.02;;;;;;;2.81;66.30;100046.89;1705659;82;21060;-81
2022/04/10 00:34:37;;;;;;;10.70;2.98;;;;;;;2.82;66.35;100044.78;1726030;82;21541;-81
2022/04/10 00:37:04;;;;;;;13.53;3.50;;;;;;;2.83;66.38;100042.65;1705529;82;21067;-81
2022/04/10 00:39:31;;;;;;;9.50;3.27;;;;;;;2.83;66.33;100045.66;1705566;82;21090;-81
2022/04/10 00:41:58;;;;;;;8.28;3.02;;;;;;;2.82;66.33;100047.80;1674646;84;22343;-80
2022/04/10 00:44:25;;;;;;;10.85;2.85;;;;;;;2.80;66.37;100051.63;1699001;82;21055;-82
2022/04/10 00:46:53;;;;;;;9.80;3.87;;;;;;;2.80;66.39;100042.53;1677732;84;21098;-80
2022/04/10 00:49:20;;;;;;;9.80;3.00;;;;;;;2.80;66.43;100046.85;1704923;82;21082;-82
2022/04/10 00:51:47;;;;;;;13.30;3.37;;;;;;;2.79;66.43;100050.26;1703292;82;21070;-81
2022/04/10 00:54:20;;;;;;;12.03;3.30;;;;;;;2.77;66.48;100051.48;1699909;84;21919;-80
2022/04/10 00:56:47;;;;;;;10.53;2.97;;;;;;;2.75;66.48;100049.22;1707788;83;21471;-81
2022/04/10 00:59:13;;;;;;;12.07;2.90;;;;;;;2.75;66.50;100052.24;1725442;82;21012;-80
2022/04/10 01:01:44;;;;;;;12.05;3.40;;;;;;;2.75;66.58;100054.84;1714604;82;20988;-80
2022/04/10 01:04:09;;;;;;;10.23;3.10;;;;;;;2.75;66.59;100050.52;1707256;82;21008;-80
2022/04/10 01:06:36;;;;;;;16.12;3.25;;;;;;;2.73;66.61;100050.45;1707676;84;22923;-81
2022/04/10 01:09:03;;;;;;;10.25;3.30;;;;;;;2.71;66.62;100048.20;1707447;84;21099;-80
2022/04/10 01:11:30;;;;;;;15.05;3.12;;;;;;;2.71;66.79;100053.81;1707537;84;21012;-81
2022/04/10 01:13:57;;;;;;;13.85;3.12;;;;;;;2.71;66.76;100057.30;1707601;84;21037;-81
2022/04/10 01:16:24;;;;;;;8.93;2.80;;;;;;;2.72;66.89;100055.19;1707663;83;22036;-81
2022/04/10 01:18:55;;;;;;;10.30;2.98;;;;;;;2.72;66.96;100059.47;1681731;84;21752;-89
2022/04/10 01:21:24;;;;;;;14.07;3.25;;;;;;;2.72;66.98;100059.09;1699448;83;21110;-80
2022/04/10 01:23:52;;;;;;;11.20;2.67;;;;;;;2.71;67.05;100053.39;1683323;84;21128;-80
2022/04/10 01:26:20;;;;;;;12.25;3.05;;;;;;;2.71;67.18;100056.41;1705240;84;21094;-80
2022/04/10 01:29:07;;;;;;;8.83;2.90;;;;;;;2.71;67.25;100062.91;1705850;84;21142;-80
2022/04/10 01:31:36;;;;;;;11.43;2.98;;;;;;;2.71;67.34;100051.21;1704232;84;21890;-81
2022/04/10 01:34:08;;;;;;;9.23;3.17;;;;;;;2.72;67.42;100059.47;1706259;83;21018;-80
2022/04/10 01:36:36;;;;;;;13.53;3.15;;;;;;;2.72;67.48;100064.67;1706161;84;21640;-80
2022/04/10 01:39:06;;;;;;;16.95;3.20;;;;;;;2.70;67.54;100063.33;1707905;84;21020;-79
2022/04/10 01:41:38;;;;;;;12.73;3.30;;;;;;;2.69;67.55;100061.95;1700210;84;21563;-80
2022/04/10 01:44:05;;;;;;;10.78;3.50;;;;;;;2.67;67.64;100069.67;1691717;83;21582;-80
2022/04/10 01:46:32;;;;;;;15.43;2.90;;;;;;;2.69;67.63;100074.95;1694101;83;21069;-80
2022/04/10 01:48:59;;;;;;;9.03;2.77;;;;;;;2.68;67.69;100074.45;1683340;83;21535;-80
2022/04/10 01:51:26;;;;;;;11.57;3.33;;;;;;;2.67;67.71;100081.78;1714129;82;21139;-80
2022/04/10 01:53:54;;;;;;;11.12;3.10;;;;;;;2.64;67.71;100083.81;1701489;82;21154;-80
2022/04/10 01:56:21;;;;;;;18.45;4.35;;;;;;;2.68;67.75;100084.84;1717829;82;21828;-80
2022/04/10 01:58:48;;;;;;;15.03;3.00;;;;;;;2.70;67.78;100078.00;1703311;82;21598;-80
2022/04/10 02:01:16;;;;;;;10.43;3.27;;;;;;;2.69;67.78;100072.34;1700884;82;21091;-81
2022/04/10 02:03:43;;;;;;;11.30;3.08;;;;;;;2.72;67.76;100082.86;1691442;82;21174;-79
2022/04/10 02:06:15;;;;;;;11.75;3.25;;;;;;;2.74;67.81;100079.95;1700472;82;21075;-82
2022/04/10 02:08:41;;;;;;;14.45;3.42;;;;;;;2.77;67.85;100080.06;1678827;82;21843;-80
2022/04/10 02:11:17;;;;;;;11.90;2.98;;;;;;;2.79;67.81;100078.84;1700832;82;21076;-80
2022/04/10 02:13:44;;;;;;;11.48;3.15;;;;;;;2.80;67.75;100078.92;1702187;82;20928;-81
2022/04/10 02:16:17;;;;;;;12.73;3.30;;;;;;;2.81;67.77;100074.18;1702609;82;20985;-80
2022/04/10 02:18:44;;;;;;;15.10;4.10;;;;;;;2.82;67.71;100073.80;1700690;82;21127;-80
2022/04/10 02:21:11;;;;;;;12.00;3.30;;;;;;;2.84;67.70;100078.66;1700228;82;21806;-80
2022/04/10 02:23:38;;;;;;;16.45;3.50;;;;;;;2.83;67.64;100068.64;1700610;82;21622;-81
2022/04/10 02:26:04;;;;;;;13.53;2.83;;;;;;;2.85;67.61;100066.11;1700694;82;21067;-80
2022/04/10 02:28:33;;;;;;;7.90;2.70;;;;;;;2.87;67.59;100073.19;1699819;84;21091;-81
2022/04/10 02:31:00;;;;;;;10.53;2.70;;;;;;;2.90;67.54;100074.59;1705977;83;21094;-80
2022/04/10 02:33:27;;;;;;;17.00;3.42;;;;;;;2.92;67.47;100072.95;1700225;84;21780;-81
2022/04/10 02:35:54;;;;;;;14.03;3.33;;;;;;;2.92;67.39;100071.66;1700442;84;21098;-80
2022/04/10 02:38:21;;;;;;;10.65;3.10;;;;;;;2.91;67.31;100083.31;1700913;83;21056;-80
2022/04/10 02:40:47;;;;;;;12.55;3.42;;;;;;;2.91;67.30;100082.89;1700488;84;21181;-81
2022/04/10 02:43:14;;;;;;;9.40;2.55;;;;;;;2.91;67.27;100081.59;1700546;84;21082;-80
2022/04/10 02:45:45;;;;;;;9.60;2.40;;;;;;;2.90;67.22;100090.19;1692967;83;21907;-81
2022/04/10 02:48:11;;;;;;;11.00;3.00;;;;;;;2.89;67.25;100097.53;1699392;83;22153;-81
2022/04/10 02:50:39;;;;;;;15.38;3.25;;;;;;;2.90;67.30;100092.80;1700690;82;21076;-81
2022/04/10 02:53:06;;;;;;;12.58;3.05;;;;;;;2.94;67.25;100095.55;1685711;83;21091;-81
2022/04/10 02:55:33;;;;;;;11.40;3.58;;;;;;;2.92;67.24;100088.97;1703897;82;21122;-81
2022/04/10 02:58:00;;;;;;;14.30;3.30;;;;;;;2.93;67.26;100086.86;1703719;82;21886;-81
2022/04/10 03:00:26;;;;;;;14.87;3.52;;;;;;;2.95;67.27;100086.91;1703705;82;21067;-80
2022/04/10 03:02:53;;;;;;;15.65;3.52;;;;;;;2.94;67.24;100093.83;1703666;82;21071;-80
2022/04/10 03:05:20;;;;;;;13.75;3.35;;;;;;;2.95;67.48;100100.81;1703288;82;21052;-81
2022/04/10 03:07:47;;;;;;;14.07;3.80;;;;;;;2.96;67.35;100092.60;1703647;82;21118;-80
2022/04/10 03:10:13;;;;;;;12.30;3.10;;;;;;;2.96;67.36;100090.00;1703944;82;21745;-80
2022/04/10 03:12:40;;;;;;;12.70;3.22;;;;;;;2.97;67.42;100094.39;1703451;82;21035;-81
2022/04/10 03:15:16;;;;;;;11.22;2.87;;;;;;;2.99;67.41;100091.45;1704026;82;21123;-80
2022/04/10 03:17:43;;;;;;;12.73;2.52;;;;;;;3.02;67.50;100098.06;1712198;82;22175;-81
2022/04/10 03:20:13;;;;;;;11.60;3.02;;;;;;;3.02;67.45;100092.48;1715883;82;21542;-81
2022/04/10 03:22:40;;;;;;;12.50;2.77;;;;;;;3.02;67.46;100092.48;1704388;82;21768;-81
2022/04/10 03:25:08;;;;;;;14.35;2.77;;;;;;;3.01;67.47;100093.28;1703592;82;21135;-81
2022/04/10 03:27:35;;;;;;;16.65;3.60;;;;;;;3.01;67.39;100102.80;1724464;82;21744;-81
2022/04/10 03:30:02;;;;;;;10.40;3.65;;;;;;;2.97;67.40;100100.47;1703999;82;21078;-79
2022/04/10 03:32:29;;;;;;;14.28;3.02;;;;;;;2.97;67.43;100100.47;1688219;82;21131;-80
2022/04/10 03:34:56;;;;;;;14.15;2.80;;;;;;;2.99;67.51;100106.62;1703956;82;21613;-82
2022/04/10 03:37:23;;;;;;;13.88;2.70;;;;;;;3.02;67.50;100108.08;1703768;82;21088;-80
2022/04/10 03:39:50;;;;;;;8.78;2.65;;;;;;;3.02;67.49;100099.36;1742562;82;20996;-79
2022/04/10 03:42:17;;;;;;;13.85;3.33;;;;;;;3.04;67.48;100109.42;1702622;82;20983;-80
2022/04/10 03:44:44;;;;;;;8.50;2.85;;;;;;;3.04;67.53;100105.13;1655778;86;21556;-82
2022/04/10 03:47:10;;;;;;;14.83;2.85;;;;;;;3.05;67.50;100113.81;1693583;83;22789;-80
2022/04/10 03:49:37;;;;;;;12.58;3.22;;;;;;;3.05;67.49;100115.11;1692783;83;21060;-81
2022/04/10 03:52:05;;;;;;;17.27;3.12;;;;;;;3.02;67.47;100119.78;1697638;82;21069;-80
2022/04/10 03:54:32;;;;;;;15.40;3.00;;;;;;;3.02;67.49;100114.96;1672824;84;21122;-82
2022/04/10 03:56:59;;;;;;;8.55;2.60;;;;;;;3.02;67.50;100119.78;1692003;83;21117;-80
2022/04/10 03:59:25;;;;;;;10.68;2.65;;;;;;;3.02;67.52;100135.77;1671901;84;21952;-82
2022/04/10 04:01:53;;;;;;;5.53;2.67;;;;;;;3.03;67.59;100135.84;1673202;84;21113;-81
2022/04/10 04:04:21;;;;;;;7.42;2.25;;;;;;;3.06;67.60;100147.69;1689354;84;21060;-81
2022/04/10 04:06:47;;;;;;;9.38;2.22;;;;;;;3.09;67.69;100144.33;1671784;84;21120;-81
2022/04/10 04:09:14;;;;;;;8.30;2.22;;;;;;;3.11;67.77;100146.58;1680087;84;21123;-81
2022/04/10 04:11:41;;;;;;;7.42;2.35;;;;;;;3.16;67.82;100154.19;1685609;82;21748;-81
2022/04/10 04:14:07;;;;;;;6.28;1.95;;;;;;;3.15;67.68;100153.70;1672949;84;21089;-81
2022/04/10 04:16:35;;;;;;;7.30;2.20;;;;;;;3.12;67.73;100166.58;1683367;84;21068;-81
2022/04/10 04:19:06;;;;;;;9.23;2.30;;;;;;;3.10;67.89;100171.70;1671260;84;21096;-81
2022/04/10 04:21:33;;;;;;;8.20;2.35;;;;;;;3.11;68.08;100171.28;1658834;84;21312;-89
2022/04/10 04:24:00;;;;;;;12.37;2.40;;;;;;;3.14;68.26;100174.45;1659381;86;21844;-89
2022/04/10 04:26:30;;;;;;;13.50;3.12;;;;;;;3.17;68.41;100183.26;1660350;84;21082;-91
2022/04/10 04:28:57;;;;;;;7.03;2.10;;;;;;;3.23;68.50;100182.26;1663708;83;21054;-91
2022/04/10 04:31:24;;;;;;;9.30;2.77;;;;;;;3.38;68.67;100181.14;1652104;86;21082;-90
2022/04/10 04:33:50;;;;;;;12.20;2.70;;;;;;;3.87;69.26;100181.59;1656775;84;21737;-82
2022/04/10 04:36:18;;;;;;;10.78;2.17;;;;;;;4.13;68.20;100193.53;1624777;86;22822;-81
2022/04/10 04:38:45;;;;;;;9.08;2.33;;;;;;;4.09;67.71;100193.81;1656582;85;21182;-80
2022/04/10 04:41:16;;;;;;;10.05;2.40;;;;;;;3.96;67.57;100177.20;1642801;86;21089;-80
2022/04/10 04:43:44;;;;;;;12.35;2.50;;;;;;;4.03;67.52;100200.03;1646771;86;21539;-79
2022/04/10 04:46:11;;;;;;;11.22;2.70;;;;;;;4.03;67.45;100201.77;1659551;84;21017;-79
2022/04/10 04:48:37;;;;;;;10.18;2.60;;;;;;;4.04;67.42;100202.25;1653572;84;23265;-79
2022/04/10 04:51:06;;;;;;;9.40;2.60;;;;;;;4.04;67.35;100208.34;1650073;84;20948;-79
2022/04/10 04:53:38;;;;;;;8.75;2.20;;;;;;;4.06;67.33;100211.90;1688060;83;21634;-79
2022/04/10 04:56:08;;;;;;;11.00;3.02;;;;;;;5.40;69.44;100217.61;1695901;82;21086;-79
2022/04/10 04:58:36;;;;;;;11.78;2.33;;;;;;;7.67;69.27;100204.95;1697614;82;21544;-79
2022/04/10 05:01:03;;;;;;;8.13;2.40;;;;;;;9.66;67.64;100210.61;1711829;82;22587;-80
2022/04/10 05:03:30;;;;;;;12.10;2.60;;;;;;;11.18;65.27;100203.11;1704614;82;21043;-81
2022/04/10 05:05:57;;;;;;;7.25;2.72;;;;;;;12.38;63.28;100206.69;1704725;82;21099;-81
2022/04/10 05:08:24;;;;;;;5.92;2.20;;;;;;;13.43;61.52;100199.95;1702067;82;21568;-80
2022/04/10 05:10:51;;;;;;;6.62;2.10;;;;;;;13.73;59.08;100205.34;1714639;82;21584;-82
2022/04/10 05:13:17;;;;;;;6.00;2.00;;;;;;;13.03;56.47;100223.91;1692250;84;22430;-83
2022/04/10 05:15:44;;;;;;;7.65;2.17;;;;;;;11.94;55.80;100218.14;1700501;84;21688;-81
2022/04/10 05:18:13;;;;;;;5.22;1.75;;;;;;;11.18;55.70;100229.01;1700899;83;21562;-82
2022/04/10 05:20:40;;;;;;;7.10;2.08;;;;;;;10.57;55.83;100234.23;1700198;83;21013;-83
2022/04/10 05:23:07;;;;;;;5.62;1.85;;;;;;;10.25;56.24;100239.79;1707393;84;21036;-82
2022/04/10 05:25:37;;;;;;;6.70;1.98;;;;;;;10.05;56.10;100249.05;1695516;83;21747;-84
2022/04/10 05:28:03;;;;;;;9.28;2.47;;;;;;;9.56;55.73;100242.39;1693315;84;21111;-82
2022/04/10 05:30:33;;;;;;;10.30;2.52;;;;;;;9.11;55.95;100253.23;1688441;84;21121;-83
2022/04/10 05:33:06;;;;;;;7.50;2.15;;;;;;;8.74;56.11;100254.97;1696069;82;21098;-82
2022/04/10 05:35:33;;;;;;;4.50;1.72;;;;;;;8.43;56.14;100250.72;1694458;84;22155;-83
2022/04/10 05:38:00;;;;;;;8.43;2.30;;;;;;;8.17;56.52;100250.88;1700285;83;21784;-83
2022/04/10 05:40:33;;;;;;;6.87;2.65;;;;;;;8.06;56.88;100258.88;1694348;84;21087;-83
2022/04/10 05:43:03;;;;;;;10.13;2.40;;;;;;;7.98;57.22;100266.97;1701996;84;21427;-83
2022/04/10 05:45:44;;;;;;;8.55;2.50;;;;;;;7.88;57.33;100260.98;1677018;84;21063;-82
2022/04/10 05:48:13;;;;;;;6.50;2.27;;;;;;;7.82;57.48;100263.45;1699019;82;21712;-85
2022/04/10 05:50:47;;;;;;;11.70;2.98;;;;;;;7.65;57.48;100264.27;1700432;84;21769;-85
2022/04/10 05:53:11;;;;;;;12.90;2.35;;;;;;;7.53;57.63;100268.31;1674641;83;21060;-86
2022/04/10 05:55:40;;;;;;;9.28;2.42;;;;;;;7.47;57.68;100275.08;1660843;85;21576;-86
2022/04/10 05:58:07;;;;;;;8.55;2.70;;;;;;;7.44;57.87;100281.13;1696650;83;21123;-82
2022/04/10 06:00:34;;;;;;;10.25;2.58;;;;;;;7.51;58.10;100280.48;1699656;84;21483;-82
2022/04/10 06:03:06;;;;;;;11.60;3.12;;;;;;;7.61;58.11;100272.47;1696676;83;21862;-82
2022/04/10 06:05:37;;;;;;;9.73;2.50;;;;;;;7.59;57.75;100280.70;1694258;83;21077;-82
2022/04/10 06:08:09;;;;;;;10.55;2.95;;;;;;;7.48;57.75;100284.73;1689621;83;21141;-82
2022/04/10 06:10:38;;;;;;;8.33;2.87;;;;;;;7.45;57.89;100293.80;1694829;83;21551;-83
2022/04/10 06:13:09;;;;;;;10.95;3.15;;;;;;;7.42;57.85;100285.87;1694754;84;21565;-82
2022/04/10 06:15:35;;;;;;;9.90;3.10;;;;;;;7.50;58.03;100299.64;1678024;82;21781;-81
2022/04/10 06:18:02;;;;;;;12.88;2.83;;;;;;;7.45;57.72;100296.41;1660774;85;21976;-82
2022/04/10 06:20:29;;;;;;;11.25;2.37;;;;;;;7.38;57.77;100279.22;1660109;85;21100;-83
2022/04/10 06:23:07;;;;;;;5.83;2.27;;;;;;;7.27;57.62;100291.09;1660623;86;21697;-83
2022/04/10 06:25:33;;;;;;;8.35;2.37;;;;;;;7.20;57.74;100307.44;1653954;85;21104;-83
2022/04/10 06:28:02;;;;;;;8.95;2.65;;;;;;;7.10;57.80;100308.89;1652230;85;21758;-83
2022/04/10 06:30:29;;;;;;;8.58;3.00;;;;;;;7.06;57.90;100312.25;1654500;84;21126;-83
2022/04/10 06:32:56;;;;;;;8.53;3.05;;;;;;;7.03;58.02;100321.30;1654274;86;21153;-83
2022/04/10 06:35:24;;;;;;;7.58;2.90;;;;;;;7.02;58.00;100326.08;1629958;86;21321;-82
2022/04/10 06:37:57;;;;;;;7.28;3.05;;;;;;;7.00;58.13;100311.63;1654452;86;21141;-83
2022/04/10 06:40:21;;;;;;;9.03;2.85;;;;;;;7.02;58.04;100335.24;1654263;85;21810;-82
2022/04/10 06:42:48;;;;;;;10.65;2.77;;;;;;;7.02;58.04;100340.48;1653405;86;21712;-83
2022/04/10 06:45:16;;;;;;;8.03;2.20;;;;;;;7.07;58.04;100342.80;1654481;85;21141;-82
2022/04/10 06:47:44;;;;;;;12.90;3.25;;;;;;;7.14;57.98;100343.47;1654349;85;21226;-82
2022/04/10 06:50:13;;;;;;;8.50;2.40;;;;;;;7.18;57.73;100346.66;1658844;84;21077;-83
2022/04/10 06:52:42;;;;;;;10.53;2.47;;;;;;;7.24;57.86;100355.55;1637098;85;21018;-82
2022/04/10 06:55:11;;;;;;;8.73;2.70;;;;;;;7.43;57.90;100340.88;1652669;86;21041;-81
2022/04/10 06:57:40;;;;;;;10.95;2.72;;;;;;;7.70;57.56;100343.89;1652036;86;21161;-81
2022/04/10 07:00:08;;;;;;;9.90;2.47;;;;;;;7.89;57.44;100354.06;1650734;85;21663;-83
2022/04/10 07:02:38;;;;;;;10.10;2.45;;;;;;;8.10;57.17;100343.73;1655079;86;21015;-80
2022/04/10 07:05:21;;;;;;;10.03;2.75;;;;;;;8.11;56.42;100355.59;1654211;84;21754;-80
2022/04/10 07:07:41;;;;;;;9.48;2.62;;;;;;;7.98;56.40;100354.77;1639347;85;21014;-82
2022/04/10 07:10:21;;;;;;;;;;;;;;;;;;;;;
2022/04/10 07:12:51;;;;;;;9.48;2.67;;;;;;;7.80;56.28;100362.97;1635768;86;21069;-85
2022/04/10 07:15:21;;;;;;;11.10;2.58;;;;;;;7.70;56.09;100373.59;1660715;86;21529;-81
2022/04/10 07:17:48;;;;;;;9.38;3.22;;;;;;;7.63;56.24;100371.63;1657873;84;21830;-81
2022/04/10 07:20:17;;;;;;;11.83;3.25;;;;;;;7.58;56.28;100378.44;1647988;86;21096;-82
2022/04/10 07:25:32;;;;;;;8.98;3.17;;;;;;;7.51;56.38;100385.23;1623137;86;21148;-80
2022/04/10 07:28:06;;;;;;;8.63;2.80;;;;;;;7.48;56.48;100389.05;1667650;84;21620;-81
2022/04/10 07:30:31;;;;;;;4.72;2.40;;;;;;;7.58;57.12;100391.14;1655294;84;21771;-81
2022/04/10 07:33:00;;;;;;;8.35;2.77;;;;;;;7.74;57.55;100395.54;1646524;87;21097;-82
2022/04/10 07:35:27;;;;;;;10.08;2.90;;;;;;;7.81;57.36;100386.11;1661581;84;21110;-82
2022/04/10 07:37:55;;;;;;;9.73;3.42;;;;;;;7.88;57.33;100389.00;1659289;86;21752;-81
2022/04/10 07:40:22;;;;;;;11.50;2.67;;;;;;;7.87;57.05;100402.05;1651834;85;21165;-82
2022/04/10 07:42:52;;;;;;;10.05;2.47;;;;;;;7.78;56.96;100401.33;1651862;85;22211;-81
2022/04/10 07:48:08;;;;;;;8.93;2.77;;;;;;;7.67;56.86;100399.69;1633591;85;21096;-81
2022/04/10 07:50:48;;;;;;;11.73;3.75;;;;;;;7.64;56.93;100409.17;1661134;85;21078;-86
2022/04/10 07:53:12;;;;;;;9.53;3.27;;;;;;;7.62;56.45;100416.09;1679104;84;22052;-85
2022/04/10 07:55:40;;;;;;;10.72;3.08;;;;;;;7.58;56.31;100412.09;1660453;85;22062;-85
2022/04/10 07:58:18;;;;;;;11.75;2.55;;;;;;;7.53;56.00;100419.34;1573161;89;21190;-84
2022/04/10 08:00:45;;;;;;;11.65;3.27;;;;;;;7.52;55.99;100420.16;1575535;89;21157;-83
2022/04/10 08:03:15;;;;;;;11.60;3.27;;;;;;;7.53;56.24;100424.58;1578185;89;21642;-83
2022/04/10 08:05:41;;;;;;;12.00;2.70;;;;;;;7.58;56.20;100434.36;1552484;90;21071;-84
2022/04/10 08:08:14;;;;;;;12.35;2.85;;;;;;;7.63;56.00;100426.63;1576264;89;21861;-84
2022/04/10 08:10:41;;;;;;;12.37;2.83;;;;;;;7.69;55.59;100437.30;1542975;91;21058;-86
2022/04/10 08:13:08;;;;;;;14.03;3.05;;;;;;;7.92;55.57;100424.02;1586930;88;21506;-82
2022/04/10 08:15:35;;;;;;;11.73;3.20;;;;;;;8.04;55.31;100427.45;1575821;89;21056;-82
2022/04/10 08:18:02;;;;;;;10.23;2.55;;;;;;;8.09;55.13;100441.16;1574758;90;21206;-80
2022/04/10 08:20:28;;;;;;;14.13;3.25;;;;;;;8.13;55.15;100431.23;1571914;89;21803;-78
2022/04/10 08:22:59;;;;;;;16.62;3.70;;;;;;;8.20;55.13;100441.45;1554491;90;21130;-84
2022/04/10 08:25:23;;;;;;;15.75;3.58;;;;;;;8.20;54.56;100453.69;1576030;89;21169;-83
2022/04/10 08:27:54;;;;;;;12.43;3.52;;;;;;;8.18;54.58;100454.95;1578878;89;21356;-83
2022/04/10 08:30:23;;;;;;;10.78;3.37;;;;;;;8.22;54.55;100452.00;1558290;89;21251;-84
2022/04/10 08:32:50;;;;;;;10.28;3.10;;;;;;;8.23;54.02;100467.78;1540162;91;22585;-77
2022/04/10 08:35:16;;;;;;;8.55;2.85;;;;;;;8.21;53.95;100461.60;1577687;89;21134;-76
2022/04/10 08:37:43;;;;;;;13.10;2.77;;;;;;;8.23;53.81;100473.45;1577745;89;21161;-77
2022/04/10 08:40:11;;;;;;;9.53;3.10;;;;;;;8.26;53.76;100467.88;1577432;89;21182;-77
2022/04/10 08:42:42;;;;;;;10.38;3.45;;;;;;;8.40;54.09;100465.66;1578575;89;21529;-76
2022/04/10 08:45:20;;;;;;;8.58;3.00;;;;;;;8.69;54.34;100486.61;1577976;89;21699;-78
2022/04/10 08:47:46;;;;;;;14.05;3.30;;;;;;;9.12;53.68;100474.27;1576287;89;21252;-77
2022/04/10 08:50:23;;;;;;;13.72;3.55;;;;;;;9.39;53.33;100474.50;1577478;89;21117;-77
2022/04/10 08:52:59;;;;;;;9.35;3.02;;;;;;;9.73;53.04;100480.59;1578528;90;21126;-78
2022/04/10 08:55:28;;;;;;;7.78;3.10;;;;;;;9.90;52.73;100487.56;1626277;84;21061;-76
2022/04/10 08:57:55;;;;;;;7.55;2.50;;;;;;;9.83;52.19;100485.64;1639673;85;21903;-76
2022/04/10 09:03:52;;;;;;;;;;;;;;;;;;;;;
2022/04/10 09:06:14;;;;;;;11.22;2.87;;;;;;;9.10;51.48;100492.12;1585235;86;21195;-76
2022/04/10 09:08:41;;;;;;;9.23;2.65;;;;;;;8.92;51.69;100493.41;1651682;84;21332;-76
2022/04/10 09:11:11;;;;;;;14.25;2.95;;;;;;;8.81;51.37;100494.84;1651376;84;22149;-76
2022/04/10 09:13:46;;;;;;;7.62;2.55;;;;;;;8.70;51.09;100491.91;1642686;85;21225;-77
2022/04/10 09:16:45;;;;;;;9.28;3.30;;;;;;;8.65;51.20;100500.09;1636433;85;21092;-76
2022/04/10 09:19:09;;;;;;;12.37;3.52;;;;;;;8.60;51.10;100496.45;1560521;89;21137;-83
2022/04/10 09:21:43;;;;;;;12.90;3.58;;;;;;;8.55;51.21;100491.48;1584017;88;21148;-84
2022/04/10 09:24:08;;;;;;;15.75;3.33;;;;;;;8.58;51.05;100498.14;1586460;88;21782;-83
2022/04/10 09:26:51;;;;;;;9.33;3.45;;;;;;;8.62;51.08;100502.63;1619637;87;21591;-83
2022/04/10 09:29:20;;;;;;;12.68;3.37;;;;;;;8.74;50.83;100509.52;1624974;86;21102;-83
2022/04/10 09:31:47;;;;;;;9.25;2.77;;;;;;;9.00;51.11;100516.36;1622952;86;21172;-85
2022/04/10 09:34:18;;;;;;;11.93;2.67;;;;;;;9.27;51.17;100514.48;1618228;86;21121;-84
2022/04/10 09:36:47;;;;;;;5.78;2.37;;;;;;;9.36;51.14;100535.27;1622437;86;21778;-83
2022/04/10 09:39:34;;;;;;;7.65;1.72;;;;;;;9.30;51.97;100540.81;1621515;86;21760;-83
2022/04/10 09:42:12;;;;;;;6.65;2.10;;;;;;;9.13;52.68;100547.36;1624140;86;21076;-83
2022/04/10 09:44:39;;;;;;;17.70;9.75;;;;;;;8.98;53.32;100538.63;1618108;86;21702;-83
2022/04/10 09:47:10;;;;;;;34.90;18.87;;;;;;;8.85;53.51;100547.88;1624897;86;21042;-84
2022/04/10 09:49:38;;;;;;;12.07;4.47;;;;;;;8.74;53.83;100554.12;1625142;86;21799;-84
2022/04/10 09:52:12;;;;;;;11.45;3.60;;;;;;;8.65;54.02;100549.95;1599503;86;21522;-85
2022/04/10 09:54:46;;;;;;;9.35;3.45;;;;;;;8.60;53.91;100546.30;1622737;87;21136;-84
2022/04/10 09:57:16;;;;;;;;;;;;;;;8.64;53.88;100548.16;1624891;86;21105;-83
2022/04/10 09:59:51;;;;;;;10.75;4.05;;;;;;;8.65;53.88;100546.02;1622425;87;20215;-83
2022/04/10 10:02:19;;;;;;;9.38;4.22;;;;;;;8.65;53.86;100538.14;1585331;89;21725;-84
2022/04/10 10:04:48;;;;;;;11.65;4.05;;;;;;;8.58;53.82;100544.05;1594223;88;21286;-85
2022/04/10 10:07:16;;;;;;;7.78;3.30;;;;;;;8.59;54.08;100550.17;1584904;88;21080;-83
2022/04/10 10:09:43;;;;;;;10.13;3.33;;;;;;;8.67;54.35;100576.20;1588790;89;21063;-84
2022/04/10 10:12:13;;;;;;;8.58;2.25;;;;;;;8.78;54.60;100587.91;1585828;88;21088;-84
2022/04/10 10:14:40;;;;;;;9.28;2.95;;;;;;;8.68;54.61;100598.99;1575800;87;21751;-84
2022/04/10 10:17:09;;;;;;;11.43;2.52;;;;;;;8.53;54.36;100596.80;1659794;84;21044;-84
2022/04/10 10:19:38;;;;;;;13.38;5.58;;;;;;;8.45;54.64;100590.43;1659013;86;21096;-83
2022/04/10 10:22:10;;;;;;;10.80;4.45;;;;;;;8.30;54.84;100575.07;1662675;85;21558;-85
2022/04/10 10:24:56;;;;;;;12.60;4.55;;;;;;;8.14;55.04;100581.11;1652018;84;21296;-83
2022/04/10 10:27:54;;;;;;;13.08;4.33;;;;;;;8.00;55.07;100581.55;1670717;84;21781;-82
2022/04/10 10:31:06;;;;;;;10.28;3.02;;;;;;;7.88;55.30;100570.21;1681773;83;20995;-85
2022/04/10 10:33:34;;;;;;;10.68;3.77;;;;;;;7.87;55.45;100575.88;1669090;84;21006;-83
2022/04/10 10:36:03;;;;;;;14.47;4.78;;;;;;;7.94;54.71;100569.13;1639292;85;21556;-82
2022/04/10 10:38:36;;;;;;;11.48;3.50;;;;;;;8.00;54.51;100575.87;1636480;85;22233;-86
2022/04/10 10:41:25;;;;;;;11.10;3.52;;;;;;;8.12;54.29;100573.63;1662472;84;21782;-81
2022/04/10 10:43:59;;;;;;;10.85;3.25;;;;;;;8.35;54.46;100572.15;1658929;85;21137;-81
2022/04/10 10:46:34;;;;;;;7.05;3.25;;;;;;;8.61;54.32;100578.66;1634589;84;21594;-81
2022/04/10 10:49:24;;;;;;;10.53;3.05;;;;;;;8.96;54.60;100602.02;1658708;84;21097;-82
2022/04/10 10:51:51;;;;;;;10.82;3.45;;;;;;;8.97;54.27;100598.52;1594720;88;21100;-80
2022/04/10 10:54:26;;;;;;;14.10;4.55;;;;;;;8.73;54.12;100587.79;1665389;83;21760;-82
2022/04/10 10:56:54;;;;;;;13.75;4.55;;;;;;;8.57;54.32;100585.54;1659139;84;21121;-81
2022/04/10 10:59:28;;;;;;;8.35;3.45;;;;;;;8.46;54.42;100587.83;1684591;84;20954;-80
2022/04/10 11:02:11;;;;;;;9.43;3.10;;;;;;;8.43;54.29;100581.59;1704965;83;21146;-81
2022/04/10 11:04:51;;;;;;;13.08;3.52;;;;;;;8.43;54.28;100591.69;1685813;83;21167;-81
2022/04/10 11:07:27;;;;;;;10.38;3.05;;;;;;;8.44;53.86;100589.95;1685547;82;21656;-80
2022/04/10 11:10:07;;;;;;;12.25;3.20;;;;;;;8.44;53.50;100587.33;1642029;83;21093;-77
2022/04/10 11:12:38;;;;;;;11.40;2.75;;;;;;;8.41;52.88;100580.63;1663745;84;21115;-80
2022/04/10 11:15:34;;;;;;;9.78;2.98;;;;;;;8.43;52.97;100593.40;1684362;83;21095;-78
2022/04/10 11:18:35;;;;;;;11.18;2.52;;;;;;;8.49;52.51;100580.50;1691880;82;21125;-77
2022/04/10 11:21:16;;;;;;;11.08;3.65;;;;;;;8.48;51.84;100588.77;1695145;82;22680;-78
2022/04/10 11:23:49;;;;;;;10.35;3.05;;;;;;;8.49;51.71;100589.67;1680691;82;20984;-78
2022/04/10 11:26:19;;;;;;;11.28;2.92;;;;;;;8.54;51.30;100588.09;1677613;83;21067;-78
2022/04/10 11:29:07;;;;;;;9.60;2.40;;;;;;;8.61;51.12;100587.84;1695825;83;21086;-78
2022/04/10 11:31:44;;;;;;;5.62;3.00;;;;;;;8.69;50.38;100583.70;1696511;82;21142;-76
2022/04/10 11:34:22;;;;;;;7.05;2.72;;;;;;;8.75;50.24;100590.03;1693218;83;21798;-76
2022/04/10 11:36:52;;;;;;;9.60;3.17;;;;;;;8.85;50.30;100585.06;1691184;82;21523;-76
2022/04/10 11:39:35;;;;;;;8.60;3.08;;;;;;;8.97;50.05;100585.40;1685214;84;21054;-76
2022/04/10 11:42:07;;;;;;;11.15;3.55;;;;;;;9.11;49.89;100595.00;1684675;85;21565;-76
2022/04/10 11:44:34;;;;;;;8.90;4.17;;;;;;;9.09;49.69;100613.77;1697830;83;21011;-77
2022/04/10 11:47:11;;;;;;;12.50;3.92;;;;;;;9.00;49.56;100615.69;1695871;82;21755;-76
2022/04/10 11:49:30;;;;;;;12.53;6.70;;;;;;;8.86;49.67;100628.82;1693876;82;21101;-76
2022/04/10 11:51:59;;;;;;;13.88;6.30;;;;;;;8.82;49.89;100633.52;1698888;82;21636;-76